Time;durP1;ratioP1;P1;durP2;ratioP2;P2;SDS_P1;SDS_P2;PMS_P1;PMS_P2;Temp;Humidity;BMP_temperature;BMP_pressure;BME280_temperature;BME280_humidity;BME280_pressure;Samples;Min_cycle;Max_cycle;Signal;HPM_P1;HPM_P2
2021/09/19 00:02:07;;;;;;;15.10;10.57;;;;;;;10.24;80.61;97165.78;4928774;29;20489;-72
2021/09/19 00:04:32;;;;;;;13.77;9.80;;;;;;;10.26;80.85;97165.53;4929516;29;20143;-72
2021/09/19 00:06:57;;;;;;;12.35;9.68;;;;;;;10.00;81.44;97155.22;4928429;29;20102;-73
2021/09/19 00:09:23;;;;;;;16.58;11.38;;;;;;;9.59;84.10;97152.84;4928323;29;20039;-71
2021/09/19 00:11:48;;;;;;;17.50;11.90;;;;;;;9.78;84.13;97152.56;4929358;29;20423;-73
2021/09/19 00:14:14;;;;;;;14.77;10.88;;;;;;;9.97;82.80;97150.34;4939948;28;20030;-72
2021/09/19 00:16:40;;;;;;;14.38;11.02;;;;;;;9.85;83.05;97149.66;4929157;28;20545;-73
2021/09/19 00:19:06;;;;;;;15.35;11.02;;;;;;;9.93;82.88;97151.94;4918256;29;20134;-72
2021/09/19 00:21:31;;;;;;;17.10;11.60;;;;;;;9.78;83.60;97146.31;4947355;28;20019;-72
2021/09/19 00:23:57;;;;;;;16.02;11.80;;;;;;;9.61;84.43;97145.34;4948146;28;20063;-72
2021/09/19 00:26:22;;;;;;;18.00;12.23;;;;;;;9.65;83.92;97140.22;4936362;28;21398;-72
2021/09/19 00:28:47;;;;;;;16.63;11.07;;;;;;;9.64;83.85;97138.59;4948725;28;20027;-71
2021/09/19 00:31:13;;;;;;;16.17;11.77;;;;;;;9.41;84.55;97140.50;4945200;28;20631;-72
2021/09/19 00:33:38;;;;;;;17.13;11.65;;;;;;;9.49;84.66;97139.22;4948151;28;20122;-71
2021/09/19 00:36:03;;;;;;;17.92;12.35;;;;;;;9.48;85.06;97140.31;4946057;29;20532;-72
2021/09/19 00:38:29;;;;;;;18.92;12.63;;;;;;;9.43;84.89;97145.66;4945911;28;20453;-73
2021/09/19 00:40:54;;;;;;;16.38;11.00;;;;;;;9.44;84.38;97141.88;4955239;28;20069;-71
2021/09/19 00:43:19;;;;;;;15.73;11.15;;;;;;;9.42;84.39;97135.88;4964596;28;20634;-72
2021/09/19 00:45:45;;;;;;;15.95;11.32;;;;;;;9.41;84.23;97132.38;4948216;28;20368;-72
2021/09/19 00:48:10;;;;;;;16.05;10.57;;;;;;;9.59;82.96;97131.22;4927396;29;20371;-72
2021/09/19 00:50:36;;;;;;;15.73;10.55;;;;;;;9.57;83.06;97129.84;4927490;29;20028;-72
2021/09/19 00:53:01;;;;;;;15.43;11.02;;;;;;;9.57;82.82;97136.09;4927017;29;20035;-72
2021/09/19 00:55:27;;;;;;;16.58;11.32;;;;;;;9.19;84.69;97130.47;4926436;29;20038;-72
2021/09/19 00:57:54;;;;;;;15.57;11.55;;;;;;;9.09;85.00;97130.31;4926727;29;20028;-72
2021/09/19 01:00:24;;;;;;;16.52;11.82;;;;;;;9.20;84.80;97123.16;4927836;29;20560;-72
2021/09/19 01:02:51;;;;;;;16.35;10.98;;;;;;;9.49;83.21;97123.84;4911193;29;20150;-73
2021/09/19 01:05:17;;;;;;;13.32;9.85;;;;;;;9.67;81.56;97121.88;4927246;29;20023;-72
2021/09/19 01:07:44;;;;;;;14.00;10.00;;;;;;;9.62;81.04;97121.84;4945418;29;20411;-73
2021/09/19 01:10:10;;;;;;;13.18;9.48;;;;;;;9.41;81.37;97121.56;4946613;29;20088;-72
2021/09/19 01:12:36;;;;;;;15.27;10.73;;;;;;;9.02;83.79;97114.28;4945180;29;20038;-72
2021/09/19 01:15:01;;;;;;;13.93;10.07;;;;;;;9.07;83.50;97116.25;4942618;29;20036;-72
2021/09/19 01:17:26;;;;;;;16.42;10.95;;;;;;;9.09;83.38;97112.25;4927689;29;20531;-71
2021/09/19 01:19:55;;;;;;;16.33;10.02;;;;;;;9.08;83.29;97115.19;4937279;29;20027;-73
2021/09/19 01:22:29;;;;;;;15.18;10.73;;;;;;;9.02;83.83;97108.88;4945755;29;20028;-72
2021/09/19 01:24:54;;;;;;;17.38;11.77;;;;;;;8.79;84.82;97113.41;4945570;29;20027;-72
2021/09/19 01:27:19;;;;;;;14.07;10.25;;;;;;;8.76;84.92;97111.22;4945764;29;20507;-71
2021/09/19 01:29:45;;;;;;;16.63;11.38;;;;;;;8.73;85.53;97110.91;4951806;28;20549;-72
2021/09/19 01:32:10;;;;;;;19.45;12.13;;;;;;;8.85;84.69;97106.22;4963668;28;20023;-72
2021/09/19 01:34:36;;;;;;;15.65;11.00;;;;;;;8.80;84.15;97106.13;4961545;28;20385;-72
2021/09/19 01:37:01;;;;;;;16.38;11.35;;;;;;;8.66;84.75;97098.38;4946054;28;20090;-72
2021/09/19 01:39:26;;;;;;;14.38;10.18;;;;;;;8.79;84.19;97096.41;4929512;29;20031;-73
2021/09/19 01:41:52;;;;;;;15.73;10.25;;;;;;;8.84;83.92;97096.47;4962136;28;20485;-72
2021/09/19 01:44:17;;;;;;;15.23;9.80;;;;;;;8.77;83.78;97091.25;4964638;28;20108;-71
2021/09/19 01:46:43;;;;;;;14.95;9.60;;;;;;;8.54;84.77;97092.22;4947068;28;20035;-73
2021/09/19 01:49:08;;;;;;;16.13;10.82;;;;;;;8.53;85.30;97094.13;4945369;29;20024;-71
2021/09/19 01:51:34;;;;;;;18.38;10.55;;;;;;;8.58;84.32;97085.28;4944513;29;20457;-72
2021/09/19 01:53:59;;;;;;;13.27;10.18;;;;;;;8.92;82.38;97076.34;4946051;28;20098;-71
2021/09/19 01:56:25;;;;;;;14.27;10.25;;;;;;;9.01;82.11;97079.44;4945573;29;20448;-71
2021/09/19 01:58:52;;;;;;;13.57;9.77;;;;;;;8.88;82.56;97078.72;4946069;28;20133;-72
2021/09/19 02:01:21;;;;;;;14.90;10.25;;;;;;;8.84;82.57;97075.69;4946175;28;20031;-71
2021/09/19 02:03:48;;;;;;;16.77;11.15;;;;;;;8.50;84.54;97081.09;4943341;28;20034;-71
2021/09/19 02:06:13;;;;;;;15.73;10.45;;;;;;;8.39;85.09;97074.72;4944780;29;20416;-72
2021/09/19 02:08:39;;;;;;;13.75;9.95;;;;;;;8.50;84.18;97073.00;4942207;29;20035;-72
2021/09/19 02:11:12;;;;;;;19.48;12.10;;;;;;;8.28;85.85;97064.81;4944702;29;20433;-72
2021/09/19 02:13:39;;;;;;;15.25;9.30;;;;;;;8.22;85.68;97071.19;4947343;28;20130;-71
2021/09/19 02:16:05;;;;;;;17.83;12.18;;;;;;;8.16;86.09;97071.13;4940533;28;20800;-72
2021/09/19 02:18:32;;;;;;;18.02;12.07;;;;;;;8.22;86.12;97069.31;4926990;29;20028;-70
2021/09/19 02:20:57;;;;;;;18.40;12.32;;;;;;;8.22;85.93;97068.50;4925673;29;20023;-71
2021/09/19 02:23:23;;;;;;;17.33;12.65;;;;;;;8.30;85.86;97062.69;4909613;29;20454;-71
2021/09/19 02:25:49;;;;;;;16.25;12.43;;;;;;;8.47;84.96;97060.00;4926185;29;20023;-71
2021/09/19 02:28:15;;;;;;;17.58;10.95;;;;;;;8.46;84.67;97058.38;4925491;29;20027;-71
2021/09/19 02:30:40;;;;;;;16.20;10.88;;;;;;;8.38;84.93;97061.47;4944249;28;20206;-71
2021/09/19 02:33:05;;;;;;;16.63;10.48;;;;;;;8.31;85.01;97050.84;4965546;28;20095;-71
2021/09/19 02:35:31;;;;;;;14.20;9.82;;;;;;;8.58;83.76;97055.59;4958160;28;20034;-71
2021/09/19 02:37:56;;;;;;;14.88;10.18;;;;;;;8.61;83.73;97046.19;4938993;28;20028;-72
2021/09/19 02:40:22;;;;;;;14.38;10.85;;;;;;;8.35;84.23;97056.56;4947601;28;20038;-72
2021/09/19 02:42:49;;;;;;;14.60;11.02;;;;;;;8.19;85.00;97059.81;4950771;28;20031;-72
2021/09/19 02:45:14;;;;;;;17.23;10.85;;;;;;;8.07;85.46;97053.69;4941693;28;20645;-72
2021/09/19 02:47:40;;;;;;;16.17;10.70;;;;;;;8.11;84.98;97049.44;4963456;28;20258;-70
2021/09/19 02:50:07;;;;;;;15.77;11.27;;;;;;;8.08;85.08;97047.25;4967935;28;20018;-72
2021/09/19 02:52:32;;;;;;;19.10;11.75;;;;;;;7.92;85.99;97040.75;4967541;28;20481;-72
2021/09/19 02:54:58;;;;;;;17.45;11.50;;;;;;;8.09;85.02;97032.69;4950189;28;20139;-71
2021/09/19 02:57:23;;;;;;;15.80;10.40;;;;;;;8.11;84.89;97033.25;4947071;28;20038;-71
2021/09/19 02:59:48;;;;;;;13.52;10.30;;;;;;;7.97;84.86;97031.94;4947765;29;20050;-72
2021/09/19 03:02:14;;;;;;;15.25;10.23;;;;;;;7.99;84.95;97032.53;4945906;28;20042;-72
2021/09/19 03:04:39;;;;;;;15.10;10.48;;;;;;;7.94;85.31;97028.69;4930360;29;20074;-71
2021/09/19 03:07:05;;;;;;;16.30;11.45;;;;;;;8.01;84.97;97031.22;4929901;29;20044;-72
2021/09/19 03:09:30;;;;;;;15.43;10.32;;;;;;;7.88;84.97;97026.94;4929113;29;20106;-72
2021/09/19 03:11:55;;;;;;;16.10;9.73;;;;;;;7.62;85.97;97017.59;4930090;29;20032;-72
2021/09/19 03:14:21;;;;;;;15.45;10.60;;;;;;;7.70;85.68;97016.41;4943498;28;20058;-72
2021/09/19 03:16:46;;;;;;;20.73;11.82;;;;;;;7.81;85.64;97031.66;4933540;28;20027;-72
2021/09/19 03:19:11;;;;;;;17.52;11.25;;;;;;;7.74;85.49;97022.94;4929892;29;20139;-72
2021/09/19 03:21:37;;;;;;;15.63;11.15;;;;;;;7.60;85.73;97027.78;4965322;28;20030;-71
2021/09/19 03:24:02;;;;;;;16.48;11.75;;;;;;;7.53;86.01;97014.47;4967391;28;20520;-72
2021/09/19 03:26:28;;;;;;;17.30;10.32;;;;;;;7.70;84.82;97019.09;4955659;28;20545;-72
2021/09/19 03:28:53;;;;;;;16.70;11.30;;;;;;;7.58;85.40;97019.94;4949463;28;20065;-72
2021/09/19 03:31:18;;;;;;;17.83;11.50;;;;;;;7.50;86.53;97020.34;4963933;28;20481;-72
2021/09/19 03:33:44;;;;;;;16.52;10.68;;;;;;;7.52;86.42;97021.72;4967913;28;20066;-71
2021/09/19 03:36:09;;;;;;;18.58;12.13;;;;;;;7.57;86.14;97020.19;4965894;28;20033;-71
2021/09/19 03:38:35;;;;;;;20.08;12.02;;;;;;;7.59;85.92;97016.19;4966341;28;20484;-72
2021/09/19 03:41:00;;;;;;;17.77;12.02;;;;;;;7.66;85.23;97024.13;4966081;28;20510;-71
2021/09/19 03:43:25;;;;;;;18.35;11.60;;;;;;;7.87;84.43;97019.09;4966488;28;20027;-71
2021/09/19 03:45:51;;;;;;;16.60;11.70;;;;;;;7.57;85.69;97015.63;4947405;28;20027;-71
2021/09/19 03:48:17;;;;;;;16.05;11.02;;;;;;;7.66;84.63;97016.03;4946893;29;20047;-72
2021/09/19 03:50:43;;;;;;;16.45;9.85;;;;;;;7.60;84.68;97023.25;4946002;28;20393;-72
2021/09/19 03:53:09;;;;;;;16.95;10.55;;;;;;;7.53;85.51;97027.94;4947198;28;20485;-71
2021/09/19 03:55:34;;;;;;;15.55;9.73;;;;;;;7.45;85.52;97029.16;4948269;28;20118;-70
2021/09/19 03:58:00;;;;;;;17.83;11.40;;;;;;;7.36;85.69;97033.25;4948095;28;20019;-71
2021/09/19 04:00:25;;;;;;;17.92;9.85;;;;;;;7.46;85.35;97030.78;4947518;28;20135;-71
2021/09/19 04:02:51;;;;;;;16.63;11.00;;;;;;;7.25;86.11;97027.69;4946462;29;20505;-71
2021/09/19 04:05:16;;;;;;;17.58;9.90;;;;;;;7.23;86.40;97029.78;4948023;28;20544;-71
2021/09/19 04:07:42;;;;;;;16.95;12.00;;;;;;;7.26;86.28;97023.13;4947943;28;20136;-72
2021/09/19 04:10:08;;;;;;;15.27;10.68;;;;;;;7.45;85.64;97028.31;4943600;28;20039;-72
2021/09/19 04:12:33;;;;;;;16.85;12.13;;;;;;;7.36;85.41;97026.00;4945721;29;20042;-71
2021/09/19 04:14:59;;;;;;;17.20;10.40;;;;;;;7.42;84.91;97030.44;4955276;28;20027;-71
2021/09/19 04:17:25;;;;;;;16.42;11.27;;;;;;;7.33;85.75;97031.88;4927827;29;20090;-72
2021/09/19 04:19:50;;;;;;;18.13;12.27;;;;;;;7.27;86.16;97040.91;4946731;29;20356;-71
2021/09/19 04:22:16;;;;;;;17.25;11.60;;;;;;;7.45;85.71;97036.41;4947820;28;20027;-72
2021/09/19 04:24:41;;;;;;;18.70;10.85;;;;;;;7.47;84.92;97034.28;4947671;28;20050;-71
2021/09/19 04:27:06;;;;;;;15.50;10.85;;;;;;;7.36;85.28;97030.56;4946521;29;20102;-72
2021/09/19 04:29:34;;;;;;;16.48;11.18;;;;;;;7.31;85.33;97031.31;4953980;28;20516;-71
2021/09/19 04:32:00;;;;;;;16.50;10.55;;;;;;;7.40;84.76;97043.34;4943315;28;20019;-72
2021/09/19 04:34:26;;;;;;;16.08;10.02;;;;;;;7.22;85.16;97033.53;4966554;28;20467;-72
2021/09/19 04:36:51;;;;;;;18.02;11.35;;;;;;;7.21;85.16;97028.38;4966176;28;20306;-72
2021/09/19 04:39:16;;;;;;;18.48;11.13;;;;;;;7.21;85.82;97034.59;4967035;28;20097;-72
2021/09/19 04:41:42;;;;;;;15.95;10.93;;;;;;;7.08;86.17;97034.88;4952036;28;20583;-72
2021/09/19 04:44:07;;;;;;;15.85;10.75;;;;;;;7.03;86.18;97035.56;4942515;28;20501;-71
2021/09/19 04:46:32;;;;;;;16.92;10.85;;;;;;;7.08;86.08;97035.69;4942913;29;20118;-71
2021/09/19 04:48:58;;;;;;;15.68;10.38;;;;;;;7.19;85.84;97042.09;4947193;28;20126;-72
2021/09/19 04:51:23;;;;;;;16.00;10.65;;;;;;;7.13;85.44;97054.66;4946976;28;20114;-72
2021/09/19 04:53:49;;;;;;;16.33;10.35;;;;;;;7.13;84.94;97041.19;4942758;28;20595;-72
2021/09/19 04:56:14;;;;;;;15.40;10.85;;;;;;;7.30;84.40;97048.53;4944459;28;20405;-72
2021/09/19 04:58:40;;;;;;;15.73;10.80;;;;;;;7.11;85.21;97045.97;4944781;28;20425;-71
2021/09/19 05:01:05;;;;;;;18.05;12.43;;;;;;;7.09;85.85;97042.72;4941788;28;20030;-72
2021/09/19 05:03:31;;;;;;;16.13;10.20;;;;;;;7.28;84.80;97050.63;4938378;29;20036;-72
2021/09/19 05:05:56;;;;;;;18.70;10.73;;;;;;;7.06;85.90;97042.34;4935543;29;20211;-72
2021/09/19 05:08:22;;;;;;;16.08;10.85;;;;;;;6.99;85.97;97042.50;4930826;29;20042;-71
2021/09/19 05:10:48;;;;;;;16.80;10.35;;;;;;;6.95;86.32;97041.31;4933498;29;20119;-71
2021/09/19 05:13:13;;;;;;;15.65;11.10;;;;;;;6.81;86.63;97046.97;4932348;29;20058;-72
2021/09/19 05:15:39;;;;;;;17.13;11.55;;;;;;;6.98;85.75;97052.47;4939994;29;20520;-71
2021/09/19 05:18:04;;;;;;;15.35;10.45;;;;;;;7.06;85.30;97059.34;4945530;23;20051;-77
2021/09/19 05:20:30;;;;;;;15.90;10.27;;;;;;;7.12;85.26;97057.59;4896691;29;20047;-77
2021/09/19 05:22:55;;;;;;;15.80;10.68;;;;;;;7.16;84.99;97062.25;4912812;29;20028;-78
2021/09/19 05:25:20;;;;;;;17.45;10.95;;;;;;;6.99;85.34;97064.03;4931719;29;20711;-78
2021/09/19 05:27:46;;;;;;;15.07;10.73;;;;;;;6.96;85.62;97070.69;4928608;29;20031;-77
2021/09/19 05:30:11;;;;;;;15.63;10.65;;;;;;;6.94;85.88;97072.81;4908620;29;20024;-78
2021/09/19 05:32:37;;;;;;;16.55;10.15;;;;;;;6.99;85.53;97072.94;4935006;29;20070;-77
2021/09/19 05:35:04;;;;;;;16.38;10.82;;;;;;;7.08;85.49;97073.38;4928064;29;20496;-77
2021/09/19 05:37:29;;;;;;;17.50;10.45;;;;;;;7.36;84.78;97071.81;4927297;29;20083;-77
2021/09/19 05:39:54;;;;;;;13.73;9.63;;;;;;;7.24;84.89;97076.41;4935264;29;20027;-77
2021/09/19 05:42:21;;;;;;;15.95;11.23;;;;;;;7.24;85.22;97077.22;4928345;29;20045;-77
2021/09/19 05:44:46;;;;;;;16.73;10.23;;;;;;;7.23;85.44;97075.56;4913649;29;20024;-77
2021/09/19 05:47:11;;;;;;;15.73;9.88;;;;;;;7.34;85.33;97076.59;4928881;29;20038;-77
2021/09/19 05:49:37;;;;;;;15.30;10.70;;;;;;;7.28;85.38;97075.69;4914883;29;20023;-77
2021/09/19 05:52:02;;;;;;;14.55;9.63;;;;;;;7.28;85.44;97080.25;4930546;29;20031;-77
2021/09/19 05:54:28;;;;;;;18.35;11.52;;;;;;;7.25;85.61;97078.84;4929814;29;20042;-77
2021/09/19 05:56:53;;;;;;;16.70;10.55;;;;;;;7.39;85.46;97083.97;4914185;29;20090;-77
2021/09/19 05:59:18;;;;;;;15.50;10.55;;;;;;;7.41;85.51;97076.47;4914197;29;20118;-77
2021/09/19 06:01:44;;;;;;;14.55;9.52;;;;;;;7.56;85.25;97075.97;4930335;29;20051;-77
2021/09/19 06:04:09;;;;;;;13.48;9.63;;;;;;;7.66;85.00;97076.16;4935878;29;20035;-78
2021/09/19 06:06:34;;;;;;;15.50;9.73;;;;;;;7.57;85.21;97079.47;4955854;29;20035;-77
2021/09/19 06:09:00;;;;;;;15.60;10.50;;;;;;;7.45;86.02;97074.13;4917852;29;20036;-76
2021/09/19 06:11:25;;;;;;;16.48;10.38;;;;;;;7.60;85.93;97071.75;4912158;29;20023;-77
2021/09/19 06:13:50;;;;;;;15.70;10.30;;;;;;;7.82;85.30;97071.06;4914970;29;20399;-77
2021/09/19 06:16:16;;;;;;;15.18;9.25;;;;;;;7.93;85.34;97067.47;4927985;29;20054;-77
2021/09/19 06:18:41;;;;;;;14.60;9.05;;;;;;;8.01;85.64;97063.59;4909358;29;20039;-77
2021/09/19 06:21:06;;;;;;;15.25;10.43;;;;;;;8.26;85.18;97064.25;4908684;29;20028;-77
2021/09/19 06:23:32;;;;;;;12.57;9.20;;;;;;;8.43;84.34;97058.84;4910159;29;20548;-77
2021/09/19 06:25:58;;;;;;;12.57;8.65;;;;;;;8.48;84.21;97058.94;4915946;29;20036;-77
2021/09/19 06:28:23;;;;;;;17.23;9.48;;;;;;;8.49;85.22;97055.19;4934528;29;20457;-77
2021/09/19 06:30:49;;;;;;;12.77;8.82;;;;;;;8.67;85.18;97058.72;4926488;29;20034;-77
2021/09/19 06:33:14;;;;;;;12.93;9.77;;;;;;;8.70;85.04;97053.63;4931689;29;20504;-77
2021/09/19 06:35:41;;;;;;;13.30;9.32;;;;;;;8.70;86.26;97059.03;4900062;29;20050;-77
2021/09/19 06:38:07;;;;;;;14.82;9.52;;;;;;;8.88;86.18;97053.59;4906603;29;20112;-78
2021/09/19 06:40:32;;;;;;;13.48;10.10;;;;;;;9.17;85.55;97056.97;4943601;29;20700;-78
2021/09/19 06:42:58;;;;;;;12.63;9.43;;;;;;;9.32;85.69;97048.22;4898460;29;20036;-78
2021/09/19 06:45:23;;;;;;;12.45;8.85;;;;;;;9.39;86.12;97052.63;4924145;29;20030;-78
2021/09/19 06:47:49;;;;;;;14.55;9.07;;;;;;;9.44;86.01;97055.41;4894796;29;20340;-78
2021/09/19 06:50:14;;;;;;;14.25;8.75;;;;;;;9.60;85.57;97057.22;4926319;29;20055;-78
2021/09/19 06:52:40;;;;;;;12.38;9.27;;;;;;;9.88;85.79;97066.13;4933562;29;20027;-78
2021/09/19 06:55:06;;;;;;;13.50;9.43;;;;;;;10.04;85.53;97062.75;4903190;29;20114;-78
2021/09/19 06:57:31;;;;;;;14.38;10.63;;;;;;;10.28;84.58;97069.47;4917560;29;20440;-78
2021/09/19 06:59:56;;;;;;;14.35;10.38;;;;;;;10.60;84.00;97067.88;4924795;29;20028;-78
2021/09/19 07:02:22;;;;;;;17.23;10.23;;;;;;;10.77;83.18;97064.19;4940601;29;20074;-79
2021/09/19 07:04:47;;;;;;;14.27;10.65;;;;;;;10.92;83.50;97060.78;4937176;29;20039;-78
2021/09/19 07:07:14;;;;;;;13.50;9.82;;;;;;;11.11;83.21;97060.31;4935461;29;20035;-78
2021/09/19 07:09:40;;;;;;;13.25;9.77;;;;;;;11.27;81.47;97058.50;4918563;29;20031;-77
2021/09/19 07:12:05;;;;;;;12.30;8.95;;;;;;;11.35;81.60;97063.41;4923074;29;20042;-77
2021/09/19 07:14:31;;;;;;;12.82;9.05;;;;;;;11.49;81.93;97066.44;4912921;29;20027;-78
2021/09/19 07:16:57;;;;;;;11.35;8.18;;;;;;;11.67;80.84;97065.16;4941341;29;20035;-79
2021/09/19 07:19:22;;;;;;;10.52;8.05;;;;;;;11.81;80.35;97065.47;4919717;29;20838;-78
2021/09/19 07:21:47;;;;;;;10.15;7.80;;;;;;;12.01;80.52;97069.31;4940054;29;20035;-79
2021/09/19 07:24:13;;;;;;;9.98;7.70;;;;;;;12.14;79.76;97072.59;4942135;29;20563;-78
2021/09/19 07:26:38;;;;;;;10.65;7.93;;;;;;;12.15;78.48;97075.06;4937833;28;20066;-77
2021/09/19 07:29:04;;;;;;;10.60;7.32;;;;;;;12.29;78.31;97069.91;4940549;28;20106;-79
2021/09/19 07:31:29;;;;;;;11.77;6.80;;;;;;;12.51;77.58;97079.69;4918780;29;20032;-79
2021/09/19 07:33:55;;;;;;;8.68;6.88;;;;;;;12.59;76.82;97079.16;4918773;29;20067;-79
2021/09/19 07:36:31;;;;;;;8.75;6.85;;;;;;;12.59;76.43;97090.03;4919723;29;20020;-78
2021/09/19 07:39:01;;;;;;;9.43;6.97;;;;;;;12.86;77.12;97093.50;4929016;29;20032;-78
2021/09/19 07:41:27;;;;;;;9.27;7.03;;;;;;;13.02;76.89;97088.88;4923531;29;20095;-79
2021/09/19 07:43:53;;;;;;;10.48;6.88;;;;;;;13.24;76.96;97090.47;4908294;29;20031;-79
2021/09/19 07:46:18;;;;;;;9.88;6.40;;;;;;;13.32;75.19;97089.91;4921857;29;20035;-77
2021/09/19 07:48:44;;;;;;;9.77;6.30;;;;;;;13.50;74.67;97084.97;4918810;29;20091;-79
2021/09/19 07:51:09;;;;;;;9.68;6.25;;;;;;;13.64;73.59;97083.25;4932613;29;20058;-79
2021/09/19 07:53:35;;;;;;;9.57;6.30;;;;;;;13.85;73.99;97083.16;4920709;29;20094;-79
2021/09/19 07:56:00;;;;;;;8.43;5.18;;;;;;;14.39;71.54;97094.28;4930319;29;20035;-79
2021/09/19 07:58:26;;;;;;;7.40;4.40;;;;;;;15.29;67.44;97104.09;4935382;29;20535;-78
2021/09/19 08:00:51;;;;;;;5.63;3.90;;;;;;;16.66;64.18;97109.44;4936641;29;20028;-79
2021/09/19 08:03:16;;;;;;;5.85;4.10;;;;;;;18.50;58.07;97112.69;4936284;29;20035;-75
2021/09/19 08:05:42;;;;;;;6.03;3.83;;;;;;;19.65;54.60;97120.78;4932128;29;20110;-75
2021/09/19 08:08:07;;;;;;;6.50;4.22;;;;;;;20.31;51.14;97130.19;4907740;29;20044;-77
2021/09/19 08:10:33;;;;;;;5.35;3.97;;;;;;;19.49;53.47;97127.53;4913346;29;20092;-77
2021/09/19 08:12:58;;;;;;;7.63;4.63;;;;;;;20.90;50.59;97123.41;4903239;29;20028;-76
2021/09/19 08:15:23;;;;;;;7.05;4.47;;;;;;;20.52;50.40;97114.66;4923479;29;20055;-76
2021/09/19 08:17:49;;;;;;;6.53;4.38;;;;;;;21.16;48.96;97111.50;4903608;29;20462;-76
2021/09/19 08:20:16;;;;;;;5.57;3.97;;;;;;;21.77;48.18;97109.66;4909001;29;20503;-76
2021/09/19 08:22:41;;;;;;;5.75;4.13;;;;;;;22.28;45.98;97104.16;4925387;29;20035;-76
2021/09/19 08:25:10;;;;;;;5.50;4.05;;;;;;;21.62;46.93;97111.00;4938205;29;20032;-76
2021/09/19 08:27:37;;;;;;;5.30;3.78;;;;;;;22.29;45.52;97107.72;4905608;29;20059;-76
2021/09/19 08:30:04;;;;;;;6.03;4.38;;;;;;;22.80;45.38;97096.59;4921987;29;20030;-76
2021/09/19 08:32:29;;;;;;;5.45;3.80;;;;;;;22.89;44.76;97107.56;4928412;29;20019;-76
2021/09/19 08:34:55;;;;;;;5.88;3.80;;;;;;;22.32;45.40;97098.75;4928896;29;20487;-76
2021/09/19 08:37:20;;;;;;;6.30;4.25;;;;;;;22.41;46.01;97104.22;4917054;29;20032;-76
2021/09/19 08:39:46;;;;;;;5.80;3.92;;;;;;;21.99;47.64;97102.22;4928456;29;20109;-76
2021/09/19 08:42:11;;;;;;;6.15;3.90;;;;;;;21.55;47.30;97106.81;4887115;29;20095;-76
2021/09/19 08:44:38;;;;;;;6.20;4.22;;;;;;;21.79;47.76;97112.91;4924228;29;20063;-76
2021/09/19 08:47:03;;;;;;;6.03;4.22;;;;;;;21.28;48.77;97108.88;4905451;29;20027;-76
2021/09/19 08:49:31;;;;;;;6.05;4.15;;;;;;;20.43;50.43;97110.28;4929902;29;20416;-76
2021/09/19 08:51:56;;;;;;;6.05;4.03;;;;;;;20.49;51.14;97109.00;4930691;29;20029;-76
2021/09/19 08:54:21;;;;;;;5.38;4.03;;;;;;;19.93;51.00;97109.56;4947617;28;20031;-76
2021/09/19 08:56:47;;;;;;;5.95;4.30;;;;;;;20.10;52.62;97112.38;4931361;29;20695;-76
2021/09/19 08:59:12;;;;;;;7.55;3.92;;;;;;;19.84;52.87;97109.53;4895476;29;20028;-76
2021/09/19 09:01:57;;;;;;;5.90;4.05;;;;;;;19.62;52.82;97112.06;4911008;29;20058;-75
2021/09/19 09:04:22;;;;;;;6.57;4.20;;;;;;;19.46;53.87;97110.88;4956048;28;20288;-75
2021/09/19 09:06:48;;;;;;;5.70;4.15;;;;;;;19.75;54.16;97110.31;4941705;29;20031;-76
2021/09/19 09:09:15;;;;;;;5.40;3.88;;;;;;;19.97;53.17;97108.59;4904752;29;20034;-76
2021/09/19 09:11:40;;;;;;;5.25;3.80;;;;;;;19.81;52.90;97121.16;4899366;29;20087;-76
2021/09/19 09:14:05;;;;;;;5.60;4.10;;;;;;;19.67;52.30;97115.78;4904490;29;20023;-76
2021/09/19 09:16:31;;;;;;;6.15;4.35;;;;;;;19.75;53.75;97110.31;4926141;29;20036;-76
2021/09/19 09:18:56;;;;;;;5.53;4.20;;;;;;;19.83;52.87;97116.97;4922695;29;20019;-76
2021/09/19 09:21:24;;;;;;;6.93;4.95;;;;;;;19.42;54.24;97118.91;4903784;29;20075;-76
2021/09/19 09:23:54;;;;;;;6.03;4.28;;;;;;;19.71;53.42;97117.56;4917613;29;20027;-76
2021/09/19 09:26:34;;;;;;;6.95;4.32;;;;;;;19.87;53.18;97112.44;4910004;29;20159;-76
2021/09/19 09:29:12;;;;;;;7.00;3.75;;;;;;;20.30;53.78;97110.13;4917697;29;20034;-76
2021/09/19 09:31:41;;;;;;;6.55;3.78;;;;;;;20.30;52.51;97107.38;4921487;29;20098;-76
2021/09/19 09:34:24;;;;;;;4.85;3.70;;;;;;;20.13;52.08;97108.97;4904097;29;20027;-74
2021/09/19 09:37:00;;;;;;;6.28;4.10;;;;;;;20.28;54.00;97115.94;4928118;29;20031;-73
2021/09/19 09:39:34;;;;;;;6.53;4.05;;;;;;;20.70;52.20;97120.13;4922845;29;20055;-73
2021/09/19 09:42:05;;;;;;;6.45;4.65;;;;;;;20.56;52.05;97122.25;4937782;29;20015;-74
2021/09/19 09:44:36;;;;;;;7.72;4.50;;;;;;;20.71;51.83;97126.47;4938440;29;20059;-74
2021/09/19 09:47:11;;;;;;;7.13;4.53;;;;;;;20.88;51.13;97118.22;4924749;29;20499;-74
2021/09/19 09:49:36;;;;;;;6.78;4.95;;;;;;;20.84;50.42;97124.66;4926991;29;20028;-73
2021/09/19 09:52:12;;;;;;;7.05;4.28;;;;;;;20.83;50.66;97126.63;4939865;29;20612;-73
2021/09/19 09:54:48;;;;;;;6.70;4.95;;;;;;;-148.22;100.00;64452.44;4920444;29;20114;-90
2021/09/19 09:57:25;;;;;;;9.00;4.60;;;;;;;-148.22;100.00;64452.44;4913483;29;20031;-72
2021/09/19 09:59:51;;;;;;;6.38;4.78;;;;;;;-148.22;100.00;64452.44;4925731;29;20086;-75
2021/09/19 10:02:18;;;;;;;6.38;4.57;;;;;;;-148.22;100.00;64452.44;4931455;29;20388;-74
2021/09/19 10:04:44;;;;;;;6.95;4.43;;;;;;;-148.22;100.00;64452.44;4903646;29;20082;-74
2021/09/19 10:07:10;;;;;;;5.97;4.68;;;;;;;-148.22;100.00;64452.44;4912805;29;20791;-73
2021/09/19 10:09:35;;;;;;;5.38;4.43;;;;;;;-148.22;100.00;64452.44;4911442;29;20094;-74
2021/09/19 10:12:02;;;;;;;6.60;4.85;;;;;;;-148.22;100.00;64452.44;4913561;29;20015;-74
2021/09/19 10:14:27;;;;;;;5.93;4.53;;;;;;;-148.22;100.00;64452.44;4897781;29;20027;-74
2021/09/19 10:16:52;;;;;;;7.43;5.88;;;;;;;-148.22;100.00;64452.44;4913862;29;20067;-74
2021/09/19 10:19:20;;;;;;;7.43;5.78;;;;;;;-148.22;100.00;64452.44;4918236;29;20094;-74
2021/09/19 10:21:47;;;;;;;7.60;4.80;;;;;;;-148.22;100.00;64452.44;4913397;29;20063;-74
2021/09/19 10:24:13;;;;;;;7.28;4.35;;;;;;;-148.22;100.00;64452.44;4914402;29;20037;-74
2021/09/19 10:26:54;;;;;;;6.80;5.20;;;;;;;-148.22;100.00;64452.44;4913703;29;20035;-74
2021/09/19 10:29:21;;;;;;;8.82;6.57;;;;;;;-148.22;100.00;64452.44;4924295;29;20385;-74
2021/09/19 10:31:47;;;;;;;8.00;5.57;;;;;;;-148.22;100.00;64452.44;4915316;29;20091;-74
2021/09/19 10:34:24;;;;;;;7.28;4.85;;;;;;;-148.22;100.00;64452.44;4918893;29;20758;-74
2021/09/19 10:36:52;;;;;;;6.93;4.43;;;;;;;-148.22;100.00;64452.44;4928639;29;20039;-74
2021/09/19 10:39:48;;;;;;;6.95;4.18;;;;;;;-148.22;100.00;64452.44;4921150;29;20106;-73
2021/09/19 10:42:21;;;;;;;6.25;4.70;;;;;;;-148.22;100.00;64452.44;4915062;29;20054;-73
2021/09/19 10:44:49;;;;;;;5.93;4.35;;;;;;;-148.22;100.00;64452.44;4945927;29;20035;-73
2021/09/19 10:47:28;;;;;;;5.78;3.97;;;;;;;-148.22;100.00;64452.44;4940258;29;20456;-73
2021/09/19 10:50:13;;;;;;;5.40;3.88;;;;;;;-148.22;100.00;64452.44;4918302;29;20519;-73
2021/09/19 10:52:45;;;;;;;5.78;4.00;;;;;;;-148.22;100.00;64452.44;4918328;29;20031;-74
2021/09/19 10:55:34;;;;;;;5.68;4.00;;;;;;;-148.22;100.00;64452.44;4924871;29;20032;-69
2021/09/19 10:58:11;;;;;;;5.57;4.18;;;;;;;-148.22;100.00;64452.44;4924037;29;20537;-69
2021/09/19 11:00:37;;;;;;;5.28;4.10;;;;;;;-148.22;100.00;64452.44;4928585;29;20027;-69
2021/09/19 11:03:14;;;;;;;7.00;4.43;;;;;;;-148.22;100.00;64452.44;4912527;29;20031;-69
2021/09/19 11:05:50;;;;;;;6.68;4.07;;;;;;;-148.22;100.00;64452.44;4937915;29;20078;-69
2021/09/19 11:08:18;;;;;;;7.75;4.00;;;;;;;-148.22;100.00;64452.44;4921436;29;20004;-68
2021/09/19 11:10:50;;;;;;;5.85;3.38;;;;;;;-148.22;100.00;64452.44;4952181;29;20082;-69
2021/09/19 11:13:22;;;;;;;7.50;4.25;;;;;;;-148.22;100.00;64452.44;4949495;29;20034;-69
2021/09/19 11:16:02;;;;;;;5.00;3.28;;;;;;;-148.22;100.00;64452.44;4938029;28;20443;-69
2021/09/19 11:18:33;;;;;;;6.72;4.88;;;;;;;-148.22;100.00;64452.44;4923171;28;20039;-69
2021/09/19 11:21:10;;;;;;;9.50;4.88;;;;;;;-148.22;100.00;64452.44;4921377;29;20046;-69
2021/09/19 11:23:44;;;;;;;5.75;4.10;;;;;;;-148.22;100.00;64452.44;4938422;29;20031;-70
2021/09/19 11:26:10;;;;;;;8.43;4.38;;;;;;;-148.22;100.00;64452.44;4909849;29;20364;-69